createdAt,value
2023-04-18T00:01:16.211Z,15.63
2023-04-18T00:04:03.044Z,15.68
2023-04-18T00:06:49.888Z,16.95
2023-04-18T00:09:35.352Z,17.45
2023-04-18T00:12:21.008Z,13.68
2023-04-18T00:15:09.381Z,14.52
2023-04-18T00:17:56.921Z,11.70
2023-04-18T00:20:43.163Z,11.63
2023-04-18T00:23:30.257Z,13.18
2023-04-18T00:26:15.884Z,11.73
2023-04-18T00:29:03.968Z,8.90
2023-04-18T00:31:49.306Z,12.30
2023-04-18T00:34:34.998Z,9.88
2023-04-18T00:37:20.521Z,11.43
2023-04-18T00:40:08.226Z,10.30
2023-04-18T00:42:53.469Z,10.43
2023-04-18T00:45:38.799Z,10.80
2023-04-18T00:48:24.567Z,10.00
2023-04-18T00:51:11.452Z,10.82
2023-04-18T00:53:57.379Z,12.77
2023-04-18T00:56:43.172Z,11.48
2023-04-18T00:59:28.616Z,12.05
2023-04-18T01:02:14.144Z,10.20
2023-04-18T01:04:59.454Z,10.85
2023-04-18T01:07:45.460Z,10.90
2023-04-18T01:10:31.218Z,12.50
2023-04-18T01:13:19.313Z,11.77
2023-04-18T01:16:04.839Z,10.75
2023-04-18T01:18:50.568Z,12.40
2023-04-18T01:21:43.620Z,11.20
2023-04-18T01:24:31.920Z,11.93
2023-04-18T01:27:17.000Z,12.57
2023-04-18T01:30:02.441Z,14.10
2023-04-18T01:32:48.649Z,11.07
2023-04-18T01:35:34.084Z,11.68
2023-04-18T01:38:19.518Z,12.00
2023-04-18T01:41:04.948Z,12.77
2023-04-18T01:43:50.483Z,11.13
2023-04-18T01:46:36.498Z,11.45
2023-04-18T01:49:21.812Z,11.15
2023-04-18T01:52:08.671Z,12.30
2023-04-18T01:54:53.706Z,12.07
2023-04-18T01:57:40.052Z,10.38
2023-04-18T02:00:25.424Z,11.18
2023-04-18T02:03:10.922Z,10.88
2023-04-18T02:05:56.782Z,10.55
2023-04-18T02:08:42.210Z,12.57
2023-04-18T02:11:27.824Z,13.18
2023-04-18T02:14:14.072Z,13.23
2023-04-18T02:16:59.781Z,11.75
2023-04-18T02:19:45.592Z,13.55
2023-04-18T02:22:31.183Z,12.60
2023-04-18T02:25:18.922Z,11.75
2023-04-18T02:28:06.252Z,14.30
2023-04-18T02:30:51.774Z,13.20
2023-04-18T02:33:37.209Z,10.43
2023-04-18T02:36:23.310Z,13.48
2023-04-18T02:39:08.637Z,12.95
2023-04-18T02:41:54.367Z,13.70
2023-04-18T02:44:43.130Z,12.77
2023-04-18T02:47:29.471Z,15.43
2023-04-18T02:50:16.824Z,13.38
2023-04-18T02:53:02.210Z,12.63
2023-04-18T02:55:59.311Z,13.05
2023-04-18T02:58:54.350Z,13.38
2023-04-18T03:02:05.278Z,14.70
2023-04-18T03:04:51.920Z,13.23
2023-04-18T03:07:37.718Z,14.10
2023-04-18T03:10:23.565Z,13.88
2023-04-18T03:13:09.133Z,14.27
2023-04-18T03:15:54.692Z,13.90
2023-04-18T03:18:41.030Z,16.08
2023-04-18T03:21:26.589Z,12.23
2023-04-18T03:24:12.419Z,12.43
2023-04-18T03:27:00.489Z,14.55
2023-04-18T03:29:46.151Z,14.25
2023-04-18T03:32:35.111Z,16.02
2023-04-18T03:35:21.049Z,15.88
2023-04-18T03:38:06.564Z,14.45
2023-04-18T03:40:55.482Z,14.38
2023-04-18T03:43:48.396Z,15.70
2023-04-18T03:46:34.424Z,16.13
2023-04-18T03:49:20.294Z,13.68
2023-04-18T03:52:06.349Z,14.68
2023-04-18T03:54:51.547Z,13.93
2023-04-18T03:57:41.443Z,16.17
2023-04-18T04:00:30.833Z,15.38
2023-04-18T04:03:22.527Z,13.65
2023-04-18T05:44:25.444Z,16.73
2023-04-18T05:47:10.877Z,15.65
2023-04-18T05:49:56.320Z,15.95
2023-04-18T05:52:41.750Z,15.45
2023-04-18T05:55:27.226Z,15.80
2023-04-18T05:58:13.027Z,14.88
2023-04-18T06:00:58.229Z,13.95
2023-04-18T06:03:44.166Z,14.43
2023-04-18T06:06:29.972Z,13.85
2023-04-18T06:09:15.415Z,16.20
2023-04-18T06:12:01.642Z,16.52
2023-04-18T06:14:47.258Z,15.95
2023-04-18T06:17:33.642Z,14.45
2023-04-18T06:20:18.820Z,14.52
2023-04-18T06:23:04.284Z,14.65
2023-04-18T06:25:49.982Z,14.27
2023-04-18T06:28:37.865Z,13.55
2023-04-18T06:31:23.334Z,13.70
2023-04-18T06:34:08.708Z,12.48
2023-04-18T06:36:54.223Z,13.48
2023-04-18T06:39:39.519Z,11.18
2023-04-18T06:42:24.909Z,13.75
2023-04-18T06:45:12.911Z,13.55
2023-04-18T06:47:59.674Z,14.00
2023-04-18T06:50:45.593Z,14.98
2023-04-18T06:53:30.916Z,12.48
2023-04-18T06:56:16.656Z,14.52
2023-04-18T06:59:01.836Z,14.75
2023-04-18T07:01:47.822Z,15.93
2023-04-18T07:04:33.006Z,14.65
2023-04-18T07:07:18.644Z,16.60
2023-04-18T07:10:04.438Z,15.10
2023-04-18T07:12:49.668Z,14.15
2023-04-18T07:15:35.943Z,13.43
2023-04-18T07:18:34.254Z,14.85
2023-04-18T07:21:23.773Z,13.90
2023-04-18T07:24:10.263Z,16.08
2023-04-18T07:26:55.414Z,14.02
2023-04-18T07:29:40.936Z,16.02
2023-04-18T07:32:26.715Z,14.95
2023-04-18T07:35:11.997Z,14.88
2023-04-18T07:37:57.541Z,14.38
2023-04-18T07:40:44.858Z,10.95
2023-04-18T07:43:30.541Z,13.75
2023-04-18T07:46:15.787Z,12.32
2023-04-18T07:49:02.329Z,15.02
2023-04-18T07:51:47.828Z,12.18
2023-04-18T07:54:33.203Z,13.55
2023-04-18T07:57:18.740Z,14.15
2023-04-18T08:00:06.392Z,11.98
2023-04-18T08:02:58.668Z,13.50
2023-04-18T08:05:44.192Z,12.77
2023-04-18T08:08:29.686Z,12.98
2023-04-18T08:11:15.108Z,13.02
2023-04-18T08:14:00.892Z,12.23
2023-04-18T08:16:46.104Z,13.10
2023-04-18T08:19:31.606Z,13.75
2023-04-18T08:22:17.014Z,12.95
2023-04-18T08:25:05.491Z,12.35
2023-04-18T08:27:51.295Z,12.43
2023-04-18T08:30:37.029Z,12.30
2023-04-18T08:33:26.270Z,13.15
2023-04-18T08:36:12.108Z,13.65
2023-04-18T08:38:58.141Z,11.40
2023-04-18T08:41:45.876Z,11.60
2023-04-18T08:44:31.261Z,12.15
2023-04-18T08:47:16.740Z,11.77
2023-04-18T08:50:02.449Z,11.80
2023-04-18T08:52:51.123Z,11.95
2023-04-18T08:55:36.502Z,14.43
2023-04-18T08:58:22.749Z,16.60
2023-04-18T09:01:08.774Z,12.02
2023-04-18T09:03:55.089Z,10.70
2023-04-18T09:06:52.768Z,11.95
2023-04-18T09:09:50.410Z,13.82
2023-04-18T09:12:42.492Z,11.65
2023-04-18T09:15:29.141Z,12.68
2023-04-18T09:18:16.174Z,10.77
2023-04-18T09:21:19.330Z,13.65
2023-04-18T09:24:26.940Z,12.35
2023-04-18T09:27:15.191Z,12.30
2023-04-18T09:30:00.693Z,11.88
2023-04-18T09:32:59.093Z,11.63
2023-04-18T09:35:44.467Z,11.63
2023-04-18T09:38:40.854Z,11.23
2023-04-18T09:41:26.994Z,13.18
2023-04-18T09:44:15.021Z,12.57
2023-04-18T09:47:01.109Z,11.00
2023-04-18T09:49:46.222Z,12.65
2023-04-18T09:52:35.968Z,10.95
2023-04-18T09:55:23.180Z,10.02
2023-04-18T09:58:09.709Z,13.05
2023-04-18T10:00:56.236Z,12.20
2023-04-18T10:03:47.328Z,9.05
2023-04-18T10:06:39.595Z,9.98
2023-04-18T10:12:12.627Z,12.00
2023-04-18T10:14:58.102Z,11.90
2023-04-18T10:18:04.432Z,11.82
2023-04-18T10:20:51.663Z,12.95
2023-04-18T10:23:39.179Z,11.23
2023-04-18T10:26:47.419Z,11.70
2023-04-18T10:29:48.920Z,10.32
2023-04-18T10:32:33.948Z,12.45
2023-04-18T10:35:21.219Z,12.05
2023-04-18T10:38:16.981Z,10.95
2023-04-18T10:41:14.945Z,10.15
2023-04-18T10:44:08.500Z,11.10
2023-04-18T10:46:54.165Z,10.85
2023-04-18T10:49:39.579Z,10.05
2023-04-18T10:52:25.406Z,11.45
2023-04-18T10:55:16.358Z,12.35
2023-04-18T10:58:02.822Z,10.02
2023-04-18T11:00:50.943Z,10.85
2023-04-18T11:03:37.777Z,12.27
2023-04-18T11:06:28.351Z,12.55
2023-04-18T11:09:14.842Z,11.48
2023-04-18T11:12:07.399Z,14.35
2023-04-18T11:14:52.633Z,12.05
2023-04-18T11:17:40.155Z,12.77
2023-04-18T11:20:26.507Z,12.82
2023-04-18T11:23:21.318Z,11.48
2023-04-18T11:26:07.446Z,10.93
2023-04-18T11:28:57.072Z,11.30
2023-04-18T11:31:43.841Z,12.13
2023-04-18T11:34:30.897Z,10.73
2023-04-18T11:37:16.657Z,12.68
2023-04-18T11:40:02.517Z,13.35
2023-04-18T11:42:47.907Z,13.93
2023-04-18T11:45:33.475Z,16.67
2023-04-18T11:48:19.045Z,13.10
2023-04-18T11:51:06.554Z,14.65
2023-04-18T11:53:52.031Z,14.15
2023-04-18T11:56:45.450Z,13.82
2023-04-18T11:59:31.073Z,15.35
2023-04-18T12:02:17.191Z,12.60
2023-04-18T12:05:02.824Z,13.20
2023-04-18T12:07:48.548Z,13.75
2023-04-18T12:10:35.789Z,14.73
2023-04-18T12:13:26.681Z,14.20
2023-04-18T12:16:12.370Z,14.18
2023-04-18T12:19:00.701Z,15.45
2023-04-18T12:22:09.834Z,12.70
2023-04-18T12:25:27.097Z,14.20
2023-04-18T12:28:16.665Z,15.35
2023-04-18T12:31:02.533Z,14.20
2023-04-18T12:33:48.063Z,17.17
2023-04-18T12:36:33.427Z,14.57
2023-04-18T12:39:18.963Z,14.55
2023-04-18T12:42:04.519Z,15.07
2023-04-18T12:44:50.156Z,15.40
2023-04-18T12:47:35.750Z,15.52
2023-04-18T12:50:24.478Z,15.30
2023-04-18T12:53:09.423Z,15.25
2023-04-18T12:55:54.974Z,14.90
2023-04-18T12:58:40.801Z,18.50
2023-04-18T13:01:27.027Z,16.58
2023-04-18T13:04:13.353Z,17.52
2023-04-18T13:06:58.962Z,17.83
2023-04-18T13:09:46.376Z,14.45
2023-04-18T13:12:31.528Z,15.60
2023-04-18T13:15:17.385Z,16.33
2023-04-18T13:18:06.174Z,15.65
2023-04-18T13:20:52.442Z,15.98
2023-04-18T13:23:37.966Z,17.75
2023-04-18T13:26:23.624Z,19.48
2023-04-18T13:29:09.996Z,18.92
2023-04-18T13:31:55.671Z,16.15
2023-04-18T13:34:46.558Z,18.90
2023-04-18T13:37:31.874Z,16.65
2023-04-18T13:40:17.482Z,17.83
2023-04-18T13:43:03.054Z,15.60
2023-04-18T13:45:48.543Z,19.55
2023-04-18T13:48:34.156Z,16.92
2023-04-18T13:51:20.627Z,15.63
2023-04-18T13:54:05.873Z,16.35
2023-04-18T13:56:51.469Z,17.25
2023-04-18T13:59:37.696Z,15.82
2023-04-18T14:02:23.585Z,17.42
2023-04-18T14:05:09.267Z,16.63
2023-04-18T14:08:01.902Z,15.60
2023-04-18T14:10:47.007Z,15.88
2023-04-18T14:13:32.529Z,19.58
2023-04-18T14:16:19.244Z,15.13
2023-04-18T14:19:05.428Z,16.23
2023-04-18T14:21:50.919Z,15.57
2023-04-18T14:24:36.447Z,15.43
2023-04-18T14:27:21.915Z,13.75
2023-04-18T14:30:08.651Z,15.00
2023-04-18T14:32:54.604Z,15.02
2023-04-18T14:35:40.364Z,15.70
2023-04-18T14:38:26.126Z,14.50
2023-04-18T14:41:11.328Z,15.77
2023-04-18T14:43:56.796Z,15.50
2023-04-18T14:46:42.936Z,13.55
2023-04-18T14:49:28.209Z,14.85
2023-04-18T14:52:14.621Z,14.25
2023-04-18T14:55:00.195Z,13.35
2023-04-18T14:57:46.017Z,14.52
2023-04-18T15:00:32.336Z,13.13
2023-04-18T15:03:17.815Z,13.73
2023-04-18T15:06:03.101Z,12.68
2023-04-18T15:08:48.650Z,16.35
2023-04-18T15:11:34.075Z,12.90
2023-04-18T15:14:19.558Z,14.60
2023-04-18T15:17:05.636Z,13.98
2023-04-18T15:19:50.992Z,13.13
2023-04-18T15:22:37.016Z,12.75
2023-04-18T15:25:22.715Z,14.00
2023-04-18T15:28:08.373Z,12.10
2023-04-18T15:30:53.511Z,12.95
2023-04-18T15:33:38.879Z,12.10
2023-04-18T15:36:24.632Z,13.35
2023-04-18T15:39:10.659Z,11.32
2023-04-18T15:41:56.495Z,12.20
2023-04-18T15:44:41.927Z,15.13
2023-04-18T15:47:27.291Z,12.77
2023-04-18T15:50:13.014Z,13.50
2023-04-18T15:52:58.401Z,13.40
2023-04-18T15:55:46.482Z,13.55
2023-04-18T15:58:31.649Z,11.77
2023-04-18T16:01:18.802Z,12.32
2023-04-18T16:04:04.287Z,11.93
2023-04-18T16:06:49.690Z,13.18
2023-04-18T16:09:36.400Z,13.23
2023-04-18T16:12:21.420Z,14.93
2023-04-18T16:15:08.462Z,13.10
2023-04-18T16:17:54.116Z,12.13
2023-04-18T16:20:39.558Z,11.38
2023-04-18T16:23:26.768Z,12.98
2023-04-18T16:26:12.177Z,11.90
2023-04-18T16:28:57.636Z,12.80
2023-04-18T16:31:43.200Z,13.00
2023-04-18T16:34:28.550Z,12.60
2023-04-18T16:37:14.079Z,10.95
2023-04-18T16:39:59.725Z,11.57
2023-04-18T16:42:45.290Z,13.52
2023-04-18T16:45:30.573Z,12.13
2023-04-18T16:48:15.992Z,12.32
2023-04-18T16:51:01.635Z,11.75
2023-04-18T16:53:46.981Z,12.52
2023-04-18T16:56:33.765Z,12.65
2023-04-18T16:59:19.218Z,11.98
2023-04-18T17:02:05.052Z,12.27
2023-04-18T17:04:50.736Z,14.48
2023-04-18T17:07:36.553Z,12.05
2023-04-18T17:10:21.929Z,13.25
2023-04-18T17:13:07.766Z,11.55
2023-04-18T17:15:53.744Z,11.52
2023-04-18T17:18:39.173Z,11.88
2023-04-18T17:21:24.836Z,11.75
2023-04-18T17:24:10.450Z,11.13
2023-04-18T17:26:57.570Z,11.77
2023-04-18T17:29:42.859Z,13.45
2023-04-18T17:32:28.612Z,12.07
2023-04-18T17:35:14.775Z,11.52
2023-04-18T17:38:00.138Z,11.15
2023-04-18T17:40:45.991Z,11.35
2023-04-18T17:43:31.207Z,12.07
2023-04-18T17:46:16.894Z,11.05
2023-04-18T17:49:02.361Z,10.70
2023-04-18T17:51:47.803Z,12.02
2023-04-18T17:54:33.625Z,11.93
2023-04-18T17:57:19.226Z,9.70
2023-04-18T18:00:10.248Z,11.43
2023-04-18T18:02:57.711Z,9.75
2023-04-18T18:05:46.859Z,10.50
2023-04-18T18:08:32.311Z,10.73
2023-04-18T18:11:17.806Z,10.07
2023-04-18T18:14:03.160Z,9.07
2023-04-18T18:16:48.768Z,9.57
2023-04-18T18:19:37.893Z,9.68
2023-04-18T18:22:25.908Z,8.52
2023-04-18T18:25:11.303Z,9.32
2023-04-18T18:27:56.779Z,9.13
2023-04-18T18:30:42.895Z,7.78
2023-04-18T18:33:28.358Z,7.90
2023-04-18T18:36:13.922Z,8.48
2023-04-18T18:38:59.324Z,7.75
2023-04-18T18:41:44.933Z,7.50
2023-04-18T18:44:30.481Z,9.50
2023-04-18T18:47:17.153Z,8.52
2023-04-18T18:50:02.654Z,8.05
2023-04-18T18:52:48.122Z,9.70
2023-04-18T18:55:33.533Z,9.10
2023-04-18T18:58:18.896Z,10.40
2023-04-18T19:01:05.765Z,12.45
2023-04-18T19:03:51.692Z,9.00
2023-04-18T19:06:36.885Z,11.05
2023-04-18T19:09:22.306Z,11.55
2023-04-18T19:12:08.229Z,12.07
2023-04-18T19:14:53.757Z,11.65
2023-04-18T19:17:39.418Z,12.13
2023-04-18T19:20:25.098Z,10.90
2023-04-18T19:23:11.421Z,14.90
2023-04-18T19:25:57.528Z,12.23
2023-04-18T19:28:43.081Z,12.45
2023-04-18T19:31:28.586Z,10.40
2023-04-18T19:34:13.976Z,10.90
2023-04-18T19:37:00.122Z,13.18
2023-04-18T19:39:45.306Z,12.50
2023-04-18T19:42:30.899Z,11.40
2023-04-18T19:45:16.078Z,10.85
2023-04-18T19:48:01.603Z,11.32
2023-04-18T19:50:46.930Z,13.07
2023-04-18T19:53:32.370Z,15.32
2023-04-18T19:56:17.654Z,11.50
2023-04-18T19:59:05.809Z,11.60
2023-04-18T20:01:51.367Z,11.90
2023-04-18T20:04:37.124Z,12.35
2023-04-18T20:07:26.310Z,10.60
2023-04-18T20:10:11.850Z,11.07
2023-04-18T20:12:57.369Z,11.10
2023-04-18T20:15:42.891Z,12.02
2023-04-18T20:18:30.290Z,15.93
2023-04-18T20:21:16.145Z,11.52
2023-04-18T20:24:01.540Z,10.90
2023-04-18T20:26:47.327Z,12.02
2023-04-18T20:29:32.482Z,11.45
2023-04-18T20:32:17.943Z,10.60
2023-04-18T20:35:04.279Z,10.07
2023-04-18T20:37:50.169Z,11.15
2023-04-18T20:40:36.146Z,9.48
2023-04-18T20:43:22.509Z,10.50
2023-04-18T20:46:08.329Z,11.95
2023-04-18T20:48:53.946Z,12.85
2023-04-18T20:51:39.504Z,9.88
2023-04-18T20:54:24.938Z,13.25
2023-04-18T20:57:10.292Z,11.20
2023-04-18T20:59:58.477Z,11.52
2023-04-18T21:02:44.296Z,9.65
2023-04-18T21:05:30.339Z,10.90
2023-04-18T21:08:15.781Z,9.20
2023-04-18T21:11:01.680Z,9.77
2023-04-18T21:13:47.004Z,10.48
2023-04-18T21:16:32.741Z,11.60
2023-04-18T21:19:18.052Z,10.02
2023-04-18T21:22:04.318Z,9.45
2023-04-18T21:24:50.006Z,9.15
2023-04-18T21:27:35.798Z,8.73
2023-04-18T21:30:21.465Z,10.10
2023-04-18T21:33:06.797Z,9.55
2023-04-18T21:35:54.492Z,8.73
2023-04-18T21:38:40.273Z,10.18
2023-04-18T21:41:25.878Z,9.02
2023-04-18T21:44:11.270Z,8.65
2023-04-18T21:46:58.741Z,11.73
2023-04-18T21:49:44.873Z,10.43
2023-04-18T21:52:30.402Z,11.05
2023-04-18T21:55:15.977Z,10.70
2023-04-18T21:58:01.362Z,10.13
2023-04-18T22:00:46.824Z,11.65
2023-04-18T22:03:34.031Z,10.80
2023-04-18T22:06:21.073Z,9.70
2023-04-18T22:09:06.538Z,8.98
2023-04-18T22:11:52.689Z,10.13
2023-04-18T22:14:38.010Z,8.25
2023-04-18T22:17:23.647Z,11.13
2023-04-18T22:20:10.683Z,9.38
2023-04-18T22:22:56.014Z,11.38
2023-04-18T22:25:41.621Z,10.00
2023-04-18T22:28:30.402Z,9.90
2023-04-18T22:31:15.750Z,8.90
2023-04-18T22:34:01.406Z,12.00
2023-04-18T22:36:46.826Z,10.45
2023-04-18T22:39:32.234Z,11.50
2023-04-18T22:42:17.851Z,9.85
2023-04-18T22:45:03.534Z,11.85
2023-04-18T22:47:49.181Z,10.55
2023-04-18T22:50:37.853Z,10.55
2023-04-18T22:53:22.980Z,11.18
2023-04-18T22:56:08.647Z,10.30
2023-04-18T22:58:54.249Z,9.05
2023-04-18T23:01:39.869Z,9.63
2023-04-18T23:04:26.306Z,10.88
2023-04-18T23:07:12.158Z,11.40
2023-04-18T23:09:57.722Z,11.48
2023-04-18T23:12:43.069Z,10.07
2023-04-18T23:15:28.634Z,10.30
2023-04-18T23:18:14.424Z,9.55
2023-04-18T23:21:00.702Z,10.88
2023-04-18T23:23:46.092Z,11.35
2023-04-18T23:26:31.410Z,14.30
2023-04-18T23:29:16.981Z,11.88
2023-04-18T23:32:02.752Z,10.30
2023-04-18T23:34:48.185Z,10.70
2023-04-18T23:37:33.758Z,14.68
2023-04-18T23:40:19.489Z,10.52
2023-04-18T23:43:04.781Z,11.48
2023-04-18T23:45:50.572Z,12.15
2023-04-18T23:48:35.906Z,12.77
2023-04-18T23:51:21.617Z,9.98
2023-04-18T23:54:07.498Z,10.68
2023-04-18T23:56:52.792Z,12.68
2023-04-18T23:59:38.342Z,13.57
